Terminal Aerodrome Forecast
Issued by NWS Shreveport, LA

Home | Current Version | Previous Version | Text Only | Print | Product List | Glossary On
Versions: 1 2 3 4 5 6 7 8 9 10 11 12 13 14 15
000
FTUS44 KSHV 281130
TAFTXK
TAF
KTXK 281130Z 2812/2912 14004KT P6SM SKC
     FM281500 23007KT P6SM SKC
     FM281800 21007KT P6SM SCT060 SCT250
     FM282100 19007KT P6SM BKN250
     FM290000 17005KT P6SM SCT250
     FM290400 20004KT P6SM SKC=

USA.gov is the U.S. government's official web portal to all federal, state and local government web resources and services.